메인 페이지
METAR-TAF:

METAR-TAF

공항 :

레이캬비크, 아이슬란드

위도: 64-08N, 경도: 021-54W, 고도: 54m

현재 날씨관측

예보는 35분 전, 18:00시(UTC)에 발표되었습니다.
동남동6kt
온도 5°C
습도 70%
기압 990 hPa
시정 10km 이상
고도 2500ft 상공 구름 많음

METAR: BIRK 201800Z 12006KT 9999 BKN025 05/00 Q0990

시각: 18:35 (18:35 UTC)

예보

예보는 1 시간 59분 전, 16:36시(UTC)에 발표되었습니다.
예보 대상 시간: 20일 18시부터 21일 18시까지 (UTC)
남동13kt
시정 10km 이상
고도 2500ft 상공 구름 보통
고도 3000ft 상공 구름 많음
전환 중
20일 20시부터 20일 23시까지 (UTC)
남동20kt, 순간 최대 풍속 30kt
전환 중
21일 00시부터 21일 03시까지 (UTC)
남동30kt, 순간 최대 풍속 40kt
시정: 5000m
고도 1000ft 상공 구름 많음
고도 2000ft 상공 흐림
전환 중
21일 07시부터 21일 09시까지 (UTC)
남동20kt, 순간 최대 풍속 30kt
전환 중
21일 10시부터 21일 13시까지 (UTC)
시정 10km 이상
고도 3500ft 상공 구름 많음

TAF: BIRK 201636Z 2018/2118 14013KT 9999 SCT025 BKN030 TX06/2112Z TN03/2019Z BECMG 2020/2023 13020G30KT BECMG 2100/2103 13030G40KT 5000 RA BKN010 OVC020 BECMG 2107/2109 13020G30KT BECMG 2110/2113 9999 BKN035

4,000개 이상의 공항 관측 자료 및 예보 (METAR 및 TAF 보고).

지도상에서 검색 가능한 기상관측소가 노란 점과 빨간 점으로 표시되어 있습니다.

기상관측소 명을 보려면 표시 위로 마우스를 이동하세요.

날씨 관측과 예보를 보려면 클릭하세요.

지도 변경 : 확대하려면 엑스 표시가 있는 녹색 버튼, 축소하려면 빼기 표시가 있는 녹색 버튼, 다음 페이지의 지도를 보려면 녹색 화살표를 클릭하세요.


METAR-TAF: